createdAt,value
2018-04-19T00:00:38.989Z,60.56
2018-04-19T00:03:07.295Z,60.77
2018-04-19T00:05:36.374Z,60.84
2018-04-19T00:08:04.849Z,60.83
2018-04-19T00:10:33.922Z,60.98
2018-04-19T00:13:03.006Z,61.23
2018-04-19T00:15:31.348Z,61.24
2018-04-19T00:17:59.674Z,61.35
2018-04-19T00:20:28.767Z,61.57
2018-04-19T00:22:57.092Z,62.02
2018-04-19T00:25:25.431Z,62.04
2018-04-19T00:27:53.747Z,61.91
2018-04-19T00:30:22.064Z,62.09
2018-04-19T00:32:50.400Z,62.10
2018-04-19T00:35:19.485Z,62.12
2018-04-19T00:37:47.810Z,62.21
2018-04-19T00:40:16.134Z,62.25
2018-04-19T00:42:44.458Z,62.36
2018-04-19T00:45:12.794Z,62.48
2018-04-19T00:47:41.152Z,62.48
2018-04-19T00:50:09.473Z,62.61
2018-04-19T00:55:44.500Z,62.63
2018-04-19T00:58:13.131Z,62.81
2018-04-19T01:00:41.472Z,62.86
2018-04-19T01:03:09.808Z,63.06
2018-04-19T01:05:38.123Z,63.25
2018-04-19T01:08:06.436Z,63.37
2018-04-19T01:10:35.578Z,63.34
2018-04-19T01:13:03.925Z,62.92
2018-04-19T01:15:33.040Z,62.71
2018-04-19T01:18:01.361Z,62.95
2018-04-19T01:20:29.697Z,63.07
2018-04-19T01:22:59.670Z,62.89
2018-04-19T01:25:28.012Z,62.73
2018-04-19T01:27:56.328Z,62.57
2018-04-19T01:30:24.648Z,62.70
2018-04-19T01:32:53.712Z,62.72
2018-04-19T01:35:39.721Z,63.01
2018-04-19T01:38:08.062Z,63.09
2018-04-19T01:40:36.386Z,63.15
2018-04-19T01:43:04.726Z,63.27
2018-04-19T01:45:33.780Z,63.30
2018-04-19T01:48:02.886Z,63.28
2018-04-19T01:50:31.343Z,63.25
2018-04-19T01:52:59.658Z,63.23
2018-04-19T01:55:27.972Z,63.23
2018-04-19T01:57:56.488Z,63.31
2018-04-19T02:00:24.808Z,63.34
2018-04-19T02:02:53.126Z,63.35
2018-04-19T02:05:21.470Z,63.43
2018-04-19T02:07:50.592Z,63.34
2018-04-19T02:10:18.906Z,63.65
2018-04-19T02:12:47.221Z,63.76
2018-04-19T02:15:16.298Z,63.88
2018-04-19T02:17:45.396Z,64.03
2018-04-19T02:20:13.710Z,64.29
2018-04-19T02:22:42.038Z,64.50
2018-04-19T02:25:10.362Z,64.69
2018-04-19T02:27:39.467Z,64.91
2018-04-19T02:30:08.548Z,64.86
2018-04-19T02:32:36.872Z,65.00
2018-04-19T02:35:05.218Z,65.13
2018-04-19T02:37:34.319Z,65.33
2018-04-19T02:40:03.606Z,65.42
2018-04-19T02:42:31.941Z,65.79
2018-04-19T02:45:00.255Z,65.71
2018-04-19T02:47:28.562Z,66.07
2018-04-19T02:49:57.647Z,66.58
2018-04-19T02:52:25.980Z,67.03
2018-04-19T02:54:54.290Z,67.35
2018-04-19T02:57:22.632Z,67.81
2018-04-19T02:59:50.929Z,67.75
2018-04-19T03:02:19.265Z,68.18
2018-04-19T03:04:47.585Z,68.65
2018-04-19T03:07:15.914Z,69.19
2018-04-19T03:09:44.378Z,69.38
2018-04-19T03:12:12.696Z,69.87
2018-04-19T03:14:41.787Z,70.16
2018-04-19T03:17:10.877Z,70.18
2018-04-19T03:19:39.231Z,70.38
2018-04-19T03:22:07.563Z,70.20
2018-04-19T03:24:36.663Z,70.24
2018-04-19T03:27:05.765Z,70.62
2018-04-19T03:29:34.867Z,70.89
2018-04-19T03:32:03.966Z,71.57
2018-04-19T03:34:33.131Z,72.15
2018-04-19T03:37:01.479Z,72.34
2018-04-19T03:39:29.800Z,72.36
2018-04-19T03:41:58.141Z,72.35
2018-04-19T03:44:26.629Z,72.35
2018-04-19T03:46:55.031Z,72.58
2018-04-19T03:49:23.411Z,72.46
2018-04-19T03:51:51.757Z,72.28
2018-04-19T03:54:20.089Z,72.19
2018-04-19T03:56:48.443Z,72.24
2018-04-19T03:59:16.777Z,71.99
2018-04-19T04:01:45.103Z,71.94
2018-04-19T04:04:13.597Z,72.10
2018-04-19T04:06:41.989Z,72.60
2018-04-19T04:09:10.318Z,72.88
2018-04-19T04:11:39.432Z,72.98
2018-04-19T04:14:08.491Z,73.19
2018-04-19T04:30:19.853Z,72.93
2018-04-19T04:32:48.175Z,73.30
2018-04-19T04:35:16.515Z,73.79
2018-04-19T04:37:45.761Z,73.90
2018-04-19T04:40:14.115Z,73.97
2018-04-19T04:42:43.205Z,74.26
2018-04-19T04:45:12.299Z,74.09
2018-04-19T04:47:41.391Z,74.27
2018-04-19T04:50:09.724Z,74.24
2018-04-19T04:52:38.053Z,74.22
2018-04-19T04:55:06.375Z,74.45
2018-04-19T04:57:34.747Z,74.32
2018-04-19T05:00:03.059Z,74.30
2018-04-19T05:02:31.397Z,74.37
2018-04-19T05:05:00.507Z,74.12
2018-04-19T05:07:28.815Z,73.98
2018-04-19T05:09:57.143Z,73.77
2018-04-19T05:12:25.485Z,73.68
2018-04-19T05:14:53.799Z,73.59
2018-04-19T05:17:22.141Z,73.39
2018-04-19T05:19:50.465Z,73.36
2018-04-19T05:22:18.835Z,73.00
2018-04-19T05:24:47.173Z,72.87
2018-04-19T05:27:15.504Z,72.72
2018-04-19T05:29:43.803Z,72.33
2018-04-19T05:32:12.115Z,71.93
2018-04-19T05:34:40.469Z,71.46
2018-04-19T05:37:09.575Z,71.10
2018-04-19T05:39:39.035Z,70.88
2018-04-19T05:42:07.360Z,70.68
2018-04-19T05:44:36.521Z,70.27
2018-04-19T05:47:04.847Z,69.55
2018-04-19T05:49:33.941Z,68.90
2018-04-19T05:52:03.013Z,68.26
2018-04-19T05:54:31.387Z,67.67
2018-04-19T05:56:59.695Z,67.14
2018-04-19T05:59:28.021Z,66.77
2018-04-19T06:01:56.337Z,66.20
2018-04-19T06:04:24.656Z,65.79
2018-04-19T06:06:53.797Z,65.73
2018-04-19T06:09:22.187Z,65.33
2018-04-19T06:11:50.624Z,64.67
2018-04-19T06:14:19.724Z,64.33
2018-04-19T06:16:48.054Z,63.78
2018-04-19T06:19:17.662Z,63.19
2018-04-19T06:21:45.985Z,62.61
2018-04-19T06:24:15.166Z,62.16
2018-04-19T06:26:43.491Z,61.70
2018-04-19T06:29:11.824Z,61.30
2018-04-19T06:31:40.169Z,61.01
2018-04-19T06:34:08.557Z,60.75
2018-04-19T06:36:36.874Z,60.08
2018-04-19T06:39:06.858Z,59.45
2018-04-19T06:41:35.220Z,58.97
2018-04-19T06:44:03.624Z,58.71
2018-04-19T06:46:31.959Z,58.29
2018-04-19T06:49:00.283Z,57.87
2018-04-19T06:51:28.594Z,57.73
2018-04-19T06:53:56.908Z,57.31
2018-04-19T06:56:25.998Z,56.52
2018-04-19T06:58:54.316Z,56.03
2018-04-19T07:01:22.622Z,55.46
2018-04-19T07:03:50.943Z,54.86
2018-04-19T07:06:19.270Z,54.64
2018-04-19T07:08:47.599Z,54.13
2018-04-19T07:11:15.953Z,53.48
2018-04-19T07:13:44.273Z,52.83
2018-04-19T07:16:12.596Z,52.23
2018-04-19T07:18:41.016Z,52.14
2018-04-19T07:21:09.365Z,51.94
2018-04-19T07:23:37.693Z,51.48
2018-04-19T07:26:06.053Z,50.76
2018-04-19T07:28:34.361Z,50.14
2018-04-19T07:31:02.696Z,49.91
2018-04-19T07:33:31.004Z,49.57
2018-04-19T07:35:59.329Z,49.63
2018-04-19T07:38:28.412Z,49.25
2018-04-19T07:40:56.752Z,49.00
2018-04-19T07:43:25.073Z,48.85
2018-04-19T07:45:53.398Z,48.35
2018-04-19T07:48:21.718Z,48.16
2018-04-19T07:50:50.043Z,47.84
2018-04-19T07:53:19.140Z,47.60
2018-04-19T07:55:48.236Z,47.11
2018-04-19T07:58:17.324Z,47.06
2018-04-19T08:00:45.656Z,47.14
2018-04-19T08:03:13.973Z,46.67
2018-04-19T08:05:43.075Z,46.08
2018-04-19T08:08:11.403Z,46.14
2018-04-19T08:10:39.800Z,45.75
2018-04-19T08:13:08.121Z,45.66
2018-04-19T08:15:36.456Z,44.84
2018-04-19T08:18:05.442Z,44.25
2018-04-19T08:20:33.779Z,43.73
2018-04-19T08:23:02.101Z,43.28
2018-04-19T08:25:30.435Z,42.66
2018-04-19T08:27:59.578Z,42.08
2018-04-19T08:30:28.070Z,42.08
2018-04-19T08:32:56.516Z,42.01
2018-04-19T08:35:24.868Z,41.62
2018-04-19T08:37:53.202Z,41.32
2018-04-19T08:40:22.306Z,40.54
2018-04-19T08:42:51.399Z,40.37
2018-04-19T08:45:20.494Z,40.08
2018-04-19T08:47:48.835Z,39.61
2018-04-19T08:50:17.187Z,38.14
2018-04-19T08:52:45.502Z,37.11
2018-04-19T08:55:13.834Z,37.34
2018-04-19T08:57:42.960Z,37.03
2018-04-19T09:00:11.278Z,36.32
2018-04-19T09:02:39.592Z,35.76
2018-04-19T09:05:08.672Z,35.06
2018-04-19T09:07:37.761Z,34.66
2018-04-19T09:10:06.080Z,34.62
2018-04-19T09:12:35.237Z,34.54
2018-04-19T09:15:03.543Z,34.26
2018-04-19T09:17:31.862Z,33.82
2018-04-19T09:20:00.195Z,33.90
2018-04-19T09:22:28.507Z,33.58
2018-04-19T09:24:57.578Z,33.16
2018-04-19T09:27:25.906Z,33.01
2018-04-19T09:29:54.241Z,32.44
2018-04-19T09:32:22.577Z,32.34
2018-04-19T09:34:50.898Z,32.71
2018-04-19T09:37:19.219Z,32.33
2018-04-19T09:39:47.582Z,32.16
2018-04-19T09:42:15.942Z,32.21
2018-04-19T09:44:44.269Z,31.85
2018-04-19T09:47:12.590Z,32.01
2018-04-19T09:49:40.932Z,31.63
2018-04-19T09:52:10.021Z,30.95
2018-04-19T09:54:39.173Z,31.57
2018-04-19T09:57:07.651Z,31.50
2018-04-19T09:59:35.993Z,31.24
2018-04-19T10:02:05.066Z,30.98
2018-04-19T10:04:34.200Z,30.93
2018-04-19T10:07:02.523Z,30.96
2018-04-19T10:09:30.828Z,31.58
2018-04-19T10:11:59.165Z,30.98
2018-04-19T10:14:27.483Z,30.68
2018-04-19T10:16:55.792Z,30.46
2018-04-19T10:19:24.896Z,30.26
2018-04-19T10:21:53.992Z,30.21
2018-04-19T10:24:23.079Z,29.85
2018-04-19T10:26:52.196Z,30.04
2018-04-19T10:29:21.320Z,30.07
2018-04-19T10:31:50.453Z,30.10
2018-04-19T10:34:18.801Z,29.91
2018-04-19T10:36:47.130Z,29.36
2018-04-19T10:39:15.462Z,29.59
2018-04-19T10:41:43.788Z,29.31
2018-04-19T10:44:12.115Z,28.87
2018-04-19T10:46:41.211Z,28.54
2018-04-19T10:49:10.323Z,28.07
2018-04-19T10:51:38.628Z,28.20
2018-04-19T10:54:07.034Z,27.90
2018-04-19T10:56:35.528Z,27.31
2018-04-19T10:59:03.838Z,27.09
2018-04-19T11:01:32.914Z,26.73
2018-04-19T11:04:02.741Z,26.36
2018-04-19T11:06:31.078Z,26.17
2018-04-19T11:08:59.508Z,25.41
2018-04-19T11:11:27.819Z,25.11
2018-04-19T11:13:56.169Z,25.15
2018-04-19T11:16:24.999Z,24.97
2018-04-19T11:18:53.360Z,24.82
2018-04-19T11:21:22.458Z,24.74
2018-04-19T11:23:51.585Z,24.34
2018-04-19T11:26:19.950Z,23.71
2018-04-19T11:28:48.267Z,23.19
2018-04-19T11:31:16.610Z,22.67
2018-04-19T11:33:45.729Z,22.16
2018-04-19T11:36:14.048Z,21.92
2018-04-19T11:38:42.452Z,21.61
2018-04-19T11:41:10.825Z,20.87
2018-04-19T11:43:39.376Z,20.49
2018-04-19T11:46:07.686Z,19.89
2018-04-19T11:48:36.080Z,19.82
2018-04-19T11:51:04.428Z,18.94
2018-04-19T11:53:32.734Z,18.20
2018-04-19T11:56:01.223Z,17.53
2018-04-19T11:58:30.100Z,17.10
2018-04-19T12:00:58.466Z,16.02
2018-04-19T12:03:26.797Z,15.27
2018-04-19T12:05:55.123Z,14.42
2018-04-19T12:08:23.458Z,13.79
2018-04-19T12:10:51.788Z,13.64
2018-04-19T12:13:20.106Z,13.11
2018-04-19T12:15:48.428Z,12.37
2018-04-19T12:18:16.780Z,12.14
2018-04-19T12:20:45.855Z,11.75
2018-04-19T12:23:14.198Z,11.73
2018-04-19T12:25:42.528Z,11.38
2018-04-19T12:28:10.870Z,10.83
2018-04-19T12:30:39.182Z,10.49
2018-04-19T12:33:08.275Z,9.96
2018-04-19T12:35:36.670Z,9.45
2018-04-19T12:38:05.054Z,8.86
2018-04-19T12:40:33.364Z,8.73
2018-04-19T12:43:01.679Z,8.27
2018-04-19T12:45:30.075Z,7.88
2018-04-19T12:47:58.370Z,7.74
2018-04-19T12:50:26.682Z,7.31
2018-04-19T12:52:54.986Z,7.15
2018-04-19T12:55:24.060Z,6.96
2018-04-19T12:57:52.370Z,6.98
2018-04-19T13:00:21.448Z,6.92
2018-04-19T13:02:50.468Z,6.86
2018-04-19T13:05:19.560Z,6.41
2018-04-19T13:07:48.686Z,6.16
2018-04-19T13:10:17.059Z,6.21
2018-04-19T13:12:45.565Z,6.27
2018-04-19T13:15:13.920Z,6.13
2018-04-19T13:17:43.008Z,5.85
2018-04-19T13:20:12.093Z,5.76
2018-04-19T13:22:40.405Z,5.74
2018-04-19T13:25:08.720Z,5.56
2018-04-19T13:27:37.059Z,5.60
2018-04-19T13:30:07.761Z,5.62
2018-04-19T13:32:36.090Z,5.74
2018-04-19T13:35:04.429Z,5.68
2018-04-19T13:37:32.807Z,5.92
2018-04-19T13:40:01.126Z,5.84
2018-04-19T13:42:30.235Z,5.50
2018-04-19T13:44:58.561Z,5.42
2018-04-19T13:47:27.664Z,5.60
2018-04-19T13:49:55.968Z,5.64
2018-04-19T13:52:24.276Z,5.68
2018-04-19T13:54:53.352Z,5.39
2018-04-19T13:57:22.469Z,5.19
2018-04-19T13:59:51.573Z,5.07
2018-04-19T14:02:19.895Z,5.16
2018-04-19T14:04:48.228Z,5.08
2018-04-19T14:07:17.335Z,4.98
2018-04-19T14:09:45.686Z,5.08
2018-04-19T14:12:14.029Z,5.33
2018-04-19T14:14:42.361Z,5.20
2018-04-19T14:17:10.684Z,5.28
2018-04-19T14:19:38.986Z,5.14
2018-04-19T14:22:07.315Z,5.07
2018-04-19T14:24:36.407Z,5.01
2018-04-19T14:27:04.729Z,5.10
2018-04-19T14:29:41.924Z,5.32
2018-04-19T14:32:11.162Z,5.60
2018-04-19T14:34:43.450Z,5.76
2018-04-19T14:37:12.578Z,6.03
2018-04-19T14:39:41.352Z,6.05
2018-04-19T14:42:10.478Z,6.22
2018-04-19T14:44:38.802Z,6.18
2018-04-19T14:47:07.210Z,6.29
2018-04-19T14:49:35.769Z,6.45
2018-04-19T14:52:04.122Z,6.42
2018-04-19T14:54:32.632Z,6.58
2018-04-19T14:57:00.956Z,6.75
2018-04-19T14:59:30.056Z,6.91
2018-04-19T15:01:59.133Z,7.00
2018-04-19T15:04:27.479Z,6.80
2018-04-19T15:06:55.790Z,6.66
2018-04-19T15:09:24.162Z,6.89
2018-04-19T15:11:52.463Z,6.77
2018-04-19T15:14:20.865Z,6.61
2018-04-19T15:16:50.003Z,6.38
2018-04-19T15:19:18.337Z,6.49
2018-04-19T15:21:46.648Z,6.71
2018-04-19T15:24:14.973Z,6.86
2018-04-19T15:26:44.126Z,6.75
2018-04-19T15:29:12.481Z,6.67
2018-04-19T15:31:40.865Z,6.57
2018-04-19T15:34:09.223Z,6.50
2018-04-19T15:36:37.561Z,6.66
2018-04-19T15:39:06.726Z,6.63
2018-04-19T15:41:35.059Z,6.79
2018-04-19T15:44:03.387Z,6.64
2018-04-19T15:46:31.718Z,6.68
2018-04-19T15:49:00.023Z,6.88
2018-04-19T15:51:28.455Z,7.03
2018-04-19T15:53:57.596Z,7.39
2018-04-19T15:56:25.910Z,8.11
2018-04-19T15:58:54.303Z,8.20
2018-04-19T16:01:22.645Z,8.44
2018-04-19T16:03:51.001Z,7.98
2018-04-19T16:06:19.335Z,8.28
2018-04-19T16:08:47.800Z,8.76
2018-04-19T16:11:16.145Z,8.86
2018-04-19T16:13:44.438Z,9.44
2018-04-19T16:16:12.776Z,9.58
2018-04-19T16:18:41.106Z,9.32
2018-04-19T16:21:09.422Z,9.18
2018-04-19T16:23:37.728Z,9.23
2018-04-19T16:26:06.074Z,9.30
2018-04-19T16:28:34.394Z,8.80
2018-04-19T16:31:02.721Z,8.70
2018-04-19T16:33:31.179Z,8.25
2018-04-19T16:35:59.602Z,8.27
2018-04-19T16:38:27.933Z,8.45
2018-04-19T16:40:56.544Z,8.42
2018-04-19T16:43:24.871Z,8.38
2018-04-19T16:45:53.197Z,8.35
2018-04-19T16:48:22.337Z,8.38
2018-04-19T16:50:50.674Z,8.54
2018-04-19T16:53:20.042Z,8.71
2018-04-19T16:56:00.968Z,8.72
2018-04-19T16:58:30.349Z,8.71
2018-04-19T17:00:59.432Z,8.92
2018-04-19T17:03:27.790Z,9.14
2018-04-19T17:05:56.311Z,9.40
2018-04-19T17:08:24.638Z,9.68
2018-04-19T17:10:53.459Z,10.08
2018-04-19T17:13:22.022Z,10.24
2018-04-19T17:15:50.460Z,10.75
2018-04-19T17:18:18.889Z,10.87
2018-04-19T17:20:47.650Z,10.95
2018-04-19T17:23:16.007Z,11.10
2018-04-19T17:25:44.318Z,11.51
2018-04-19T17:28:13.392Z,11.95
2018-04-19T17:30:41.699Z,11.89
2018-04-19T17:33:10.769Z,12.19
2018-04-19T17:35:39.137Z,12.40
2018-04-19T17:38:07.462Z,12.78
2018-04-19T17:40:36.562Z,13.32
2018-04-19T17:43:05.672Z,13.76
2018-04-19T17:45:33.977Z,14.50
2018-04-19T17:48:02.340Z,15.45
2018-04-19T17:50:30.703Z,16.28
2018-04-19T17:52:59.897Z,17.04
2018-04-19T17:55:29.427Z,17.79
2018-04-19T17:57:57.984Z,18.48
2018-04-19T18:00:27.252Z,19.10
2018-04-19T18:02:56.465Z,19.78
2018-04-19T18:05:24.791Z,20.33
2018-04-19T18:07:53.880Z,21.09
2018-04-19T18:10:22.442Z,21.53
2018-04-19T18:12:52.712Z,22.40
2018-04-19T18:15:21.809Z,22.75
2018-04-19T18:17:50.913Z,23.22
2018-04-19T18:20:20.273Z,23.82
2018-04-19T18:22:49.246Z,24.32
2018-04-19T18:25:17.633Z,25.27
2018-04-19T18:27:46.074Z,25.54
2018-04-19T18:30:15.295Z,26.50
2018-04-19T18:32:43.652Z,26.61
2018-04-19T18:35:11.957Z,27.16
2018-04-19T18:37:40.267Z,29.16
2018-04-19T18:40:08.609Z,30.54
2018-04-19T18:42:38.377Z,31.52
2018-04-19T18:45:06.861Z,32.32
2018-04-19T18:47:35.204Z,33.42
2018-04-19T18:50:03.521Z,34.31
2018-04-19T18:52:31.858Z,34.88
2018-04-19T18:55:00.983Z,35.72
2018-04-19T18:57:29.859Z,36.24
2018-04-19T18:59:58.238Z,36.56
2018-04-19T19:02:31.672Z,36.78
2018-04-19T19:05:00.231Z,37.56
2018-04-19T19:07:30.674Z,37.78
2018-04-19T19:10:00.754Z,38.59
2018-04-19T19:12:35.029Z,39.32
2018-04-19T19:18:52.068Z,40.38
2018-04-19T19:21:20.632Z,40.90
2018-04-19T19:23:49.022Z,41.53
2018-04-19T19:26:18.120Z,41.75
2018-04-19T19:28:46.489Z,42.27
2018-04-19T19:31:14.995Z,42.84
2018-04-19T19:33:43.330Z,43.25
2018-04-19T19:36:11.635Z,43.20
2018-04-19T19:38:39.969Z,43.90
2018-04-19T19:41:09.050Z,43.89
2018-04-19T19:43:37.369Z,43.89
2018-04-19T19:46:05.709Z,44.01
2018-04-19T19:48:34.018Z,44.41
2018-04-19T19:51:02.330Z,44.38
2018-04-19T19:53:30.647Z,43.61
2018-04-19T19:55:58.980Z,43.48
2018-04-19T19:58:27.309Z,44.11
2018-04-19T20:00:55.649Z,44.31
2018-04-19T20:03:23.991Z,44.63
2018-04-19T20:05:53.076Z,45.00
2018-04-19T20:08:21.640Z,43.93
2018-04-19T20:10:49.961Z,42.63
2018-04-19T20:13:19.072Z,41.89
2018-04-19T20:15:48.151Z,41.49
2018-04-19T20:18:17.244Z,41.20
2018-04-19T20:20:45.624Z,41.17
2018-04-19T20:23:13.951Z,40.85
2018-04-19T20:25:42.280Z,40.90
2018-04-19T20:28:11.394Z,40.83
2018-04-19T20:30:39.764Z,41.43
2018-04-19T20:33:08.084Z,41.75
2018-04-19T20:35:36.415Z,42.62
2018-04-19T20:38:04.735Z,43.31
2018-04-19T20:40:33.900Z,41.75
2018-04-19T20:43:02.222Z,40.91
2018-04-19T20:45:31.373Z,40.44
2018-04-19T20:47:59.702Z,40.19
2018-04-19T20:50:28.804Z,40.47
2018-04-19T20:52:57.111Z,40.60
2018-04-19T20:55:25.442Z,40.90
2018-04-19T20:57:53.788Z,41.00
2018-04-19T21:00:23.194Z,40.79
2018-04-19T21:02:51.507Z,40.59
2018-04-19T21:05:19.842Z,40.95
2018-04-19T21:07:48.148Z,40.92
2018-04-19T21:10:16.618Z,40.55
2018-04-19T21:12:44.944Z,40.70
2018-04-19T21:15:13.345Z,40.34
2018-04-19T21:17:41.659Z,40.74
2018-04-19T21:20:09.992Z,40.98
2018-04-19T21:22:39.916Z,40.93
2018-04-19T21:25:08.242Z,41.38
2018-04-19T21:27:36.688Z,41.28
2018-04-19T21:30:05.787Z,41.03
2018-04-19T21:32:35.555Z,40.83
2018-04-19T21:35:03.887Z,40.67
2018-04-19T21:37:32.956Z,40.87
2018-04-19T21:40:01.300Z,40.69
2018-04-19T21:42:29.620Z,40.60
2018-04-19T21:44:57.957Z,40.19
2018-04-19T21:47:26.338Z,39.92
2018-04-19T21:49:55.397Z,40.43
2018-04-19T21:52:23.750Z,40.56
2018-04-19T21:54:52.078Z,41.28
2018-04-19T21:57:21.206Z,41.37
2018-04-19T21:59:50.380Z,41.30
2018-04-19T22:02:19.476Z,40.88
2018-04-19T22:04:48.557Z,41.28
2018-04-19T22:07:16.913Z,42.59
2018-04-19T22:09:45.250Z,42.04
2018-04-19T22:12:13.649Z,41.96
2018-04-19T22:14:42.014Z,42.97
2018-04-19T22:17:11.104Z,43.07
2018-04-19T22:19:40.194Z,43.78
2018-04-19T22:22:08.562Z,43.60
2018-04-19T22:24:38.482Z,43.94
2018-04-19T22:27:06.788Z,44.37
2018-04-19T22:29:35.908Z,44.76
2018-04-19T22:32:04.224Z,44.96
2018-04-19T22:34:32.559Z,44.97
2018-04-19T22:37:00.884Z,44.92
2018-04-19T22:39:29.210Z,45.67
2018-04-19T22:41:58.394Z,45.75
2018-04-19T22:44:26.724Z,45.79
2018-04-19T22:46:55.327Z,46.13
2018-04-19T22:49:23.675Z,45.90
2018-04-19T22:51:52.806Z,45.93
2018-04-19T22:54:21.133Z,47.25
2018-04-19T22:56:49.450Z,48.00
2018-04-19T22:59:17.763Z,48.82
2018-04-19T23:01:46.100Z,49.68
2018-04-19T23:04:15.311Z,50.26
2018-04-19T23:06:43.633Z,50.85
2018-04-19T23:09:11.950Z,51.33
2018-04-19T23:11:40.304Z,51.61
2018-04-19T23:14:08.660Z,51.91
2018-04-19T23:16:36.966Z,52.30
2018-04-19T23:19:05.288Z,52.94
2018-04-19T23:21:34.376Z,53.05
2018-04-19T23:24:02.688Z,52.48
2018-04-19T23:26:31.076Z,52.45
2018-04-19T23:29:00.152Z,53.35
2018-04-19T23:31:29.251Z,53.44
2018-04-19T23:33:58.362Z,53.60
2018-04-19T23:36:26.683Z,53.65
2018-04-19T23:38:55.014Z,53.95
2018-04-19T23:41:24.128Z,54.77
2018-04-19T23:43:52.439Z,55.29
2018-04-19T23:46:20.778Z,57.51
2018-04-19T23:48:49.868Z,59.40
2018-04-19T23:51:19.155Z,60.05
2018-04-19T23:53:47.613Z,60.59
2018-04-19T23:56:15.950Z,61.18
2018-04-19T23:58:45.195Z,60.58
